sensor_id;sensor_type;location;lat;lon;timestamp;P1;durP1;ratioP1;P2;durP2;ratioP2
72676;SDS011;60755;51.374;10.662;2023-06-26T00:01:41;7.40;;;6.57;;
72676;SDS011;60755;51.374;10.662;2023-06-26T00:04:09;7.10;;;6.50;;
72676;SDS011;60755;51.374;10.662;2023-06-26T00:06:40;7.50;;;6.18;;
72676;SDS011;60755;51.374;10.662;2023-06-26T00:09:07;7.40;;;6.72;;
72676;SDS011;60755;51.374;10.662;2023-06-26T00:11:36;6.95;;;6.35;;
72676;SDS011;60755;51.374;10.662;2023-06-26T00:14:03;7.32;;;6.72;;
72676;SDS011;60755;51.374;10.662;2023-06-26T00:16:30;7.38;;;6.65;;
72676;SDS011;60755;51.374;10.662;2023-06-26T00:18:57;9.32;;;7.05;;
72676;SDS011;60755;51.374;10.662;2023-06-26T00:21:25;6.95;;;6.30;;
72676;SDS011;60755;51.374;10.662;2023-06-26T00:23:53;7.78;;;6.97;;
72676;SDS011;60755;51.374;10.662;2023-06-26T00:26:20;7.10;;;6.47;;
72676;SDS011;60755;51.374;10.662;2023-06-26T00:28:48;7.35;;;6.75;;
72676;SDS011;60755;51.374;10.662;2023-06-26T00:31:16;8.73;;;7.60;;
72676;SDS011;60755;51.374;10.662;2023-06-26T00:33:43;7.97;;;7.18;;
72676;SDS011;60755;51.374;10.662;2023-06-26T00:36:10;8.68;;;7.88;;
72676;SDS011;60755;51.374;10.662;2023-06-26T00:38:38;8.50;;;7.80;;
72676;SDS011;60755;51.374;10.662;2023-06-26T00:41:05;10.15;;;8.07;;
72676;SDS011;60755;51.374;10.662;2023-06-26T00:43:38;7.97;;;7.18;;
72676;SDS011;60755;51.374;10.662;2023-06-26T00:46:11;8.45;;;7.75;;
72676;SDS011;60755;51.374;10.662;2023-06-26T00:48:41;7.85;;;7.10;;
72676;SDS011;60755;51.374;10.662;2023-06-26T00:51:09;7.50;;;6.88;;
72676;SDS011;60755;51.374;10.662;2023-06-26T00:53:37;7.93;;;7.22;;
72676;SDS011;60755;51.374;10.662;2023-06-26T00:56:05;8.10;;;7.40;;
72676;SDS011;60755;51.374;10.662;2023-06-26T00:58:36;7.63;;;6.93;;
72676;SDS011;60755;51.374;10.662;2023-06-26T01:01:03;8.65;;;7.20;;
72676;SDS011;60755;51.374;10.662;2023-06-26T01:03:35;8.63;;;7.80;;
72676;SDS011;60755;51.374;10.662;2023-06-26T01:06:05;8.20;;;7.45;;
72676;SDS011;60755;51.374;10.662;2023-06-26T01:08:32;7.18;;;6.57;;
72676;SDS011;60755;51.374;10.662;2023-06-26T01:11:00;8.57;;;7.78;;
72676;SDS011;60755;51.374;10.662;2023-06-26T01:13:27;8.25;;;6.70;;
72676;SDS011;60755;51.374;10.662;2023-06-26T01:15:56;7.95;;;7.35;;
72676;SDS011;60755;51.374;10.662;2023-06-26T01:18:25;8.20;;;7.45;;
72676;SDS011;60755;51.374;10.662;2023-06-26T01:20:54;8.32;;;7.63;;
72676;SDS011;60755;51.374;10.662;2023-06-26T01:23:30;8.45;;;7.68;;
72676;SDS011;60755;51.374;10.662;2023-06-26T01:26:16;7.80;;;7.20;;
72676;SDS011;60755;51.374;10.662;2023-06-26T01:28:46;9.90;;;7.55;;
72676;SDS011;60755;51.374;10.662;2023-06-26T01:31:14;8.10;;;7.40;;
72676;SDS011;60755;51.374;10.662;2023-06-26T01:33:42;8.82;;;7.93;;
72676;SDS011;60755;51.374;10.662;2023-06-26T01:36:10;8.18;;;7.47;;
72676;SDS011;60755;51.374;10.662;2023-06-26T01:38:38;7.93;;;7.30;;
72676;SDS011;60755;51.374;10.662;2023-06-26T01:41:05;8.50;;;7.55;;
72676;SDS011;60755;51.374;10.662;2023-06-26T01:43:36;8.40;;;7.63;;
72676;SDS011;60755;51.374;10.662;2023-06-26T01:46:21;8.07;;;7.38;;
72676;SDS011;60755;51.374;10.662;2023-06-26T01:48:54;8.30;;;7.38;;
72676;SDS011;60755;51.374;10.662;2023-06-26T01:51:30;10.35;;;7.45;;
72676;SDS011;60755;51.374;10.662;2023-06-26T01:53:59;9.10;;;7.50;;
72676;SDS011;60755;51.374;10.662;2023-06-26T01:56:28;7.90;;;7.20;;
72676;SDS011;60755;51.374;10.662;2023-06-26T01:58:58;9.48;;;8.52;;
72676;SDS011;60755;51.374;10.662;2023-06-26T02:01:27;9.25;;;8.35;;
72676;SDS011;60755;51.374;10.662;2023-06-26T02:03:57;10.13;;;8.45;;
72676;SDS011;60755;51.374;10.662;2023-06-26T02:06:24;8.10;;;7.40;;
72676;SDS011;60755;51.374;10.662;2023-06-26T02:08:52;8.43;;;7.65;;
72676;SDS011;60755;51.374;10.662;2023-06-26T02:11:22;8.48;;;7.63;;
72676;SDS011;60755;51.374;10.662;2023-06-26T02:13:49;8.30;;;7.50;;
72676;SDS011;60755;51.374;10.662;2023-06-26T02:16:18;8.52;;;7.65;;
72676;SDS011;60755;51.374;10.662;2023-06-26T02:18:45;8.27;;;7.57;;
72676;SDS011;60755;51.374;10.662;2023-06-26T02:21:13;7.60;;;6.90;;
72676;SDS011;60755;51.374;10.662;2023-06-26T02:23:40;8.40;;;7.50;;
72676;SDS011;60755;51.374;10.662;2023-06-26T02:26:07;7.63;;;6.93;;
72676;SDS011;60755;51.374;10.662;2023-06-26T02:28:35;11.07;;;8.18;;
72676;SDS011;60755;51.374;10.662;2023-06-26T02:31:03;8.35;;;7.65;;
72676;SDS011;60755;51.374;10.662;2023-06-26T02:33:33;8.77;;;7.53;;
72676;SDS011;60755;51.374;10.662;2023-06-26T02:36:00;7.57;;;6.97;;
72676;SDS011;60755;51.374;10.662;2023-06-26T02:38:28;8.02;;;7.28;;
72676;SDS011;60755;51.374;10.662;2023-06-26T02:40:55;7.60;;;6.85;;
72676;SDS011;60755;51.374;10.662;2023-06-26T02:43:22;8.32;;;7.60;;
72676;SDS011;60755;51.374;10.662;2023-06-26T02:45:50;9.18;;;7.35;;
72676;SDS011;60755;51.374;10.662;2023-06-26T02:48:18;8.65;;;7.85;;
72676;SDS011;60755;51.374;10.662;2023-06-26T02:50:46;8.35;;;7.45;;
72676;SDS011;60755;51.374;10.662;2023-06-26T02:53:14;8.13;;;7.32;;
72676;SDS011;60755;51.374;10.662;2023-06-26T02:55:44;7.68;;;6.97;;
72676;SDS011;60755;51.374;10.662;2023-06-26T02:58:14;8.32;;;7.07;;
72676;SDS011;60755;51.374;10.662;2023-06-26T03:00:41;8.13;;;7.43;;
72676;SDS011;60755;51.374;10.662;2023-06-26T03:03:13;8.20;;;7.38;;
72676;SDS011;60755;51.374;10.662;2023-06-26T03:05:40;7.93;;;7.22;;
72676;SDS011;60755;51.374;10.662;2023-06-26T03:08:09;8.20;;;7.47;;
72676;SDS011;60755;51.374;10.662;2023-06-26T03:10:37;8.73;;;7.78;;
72676;SDS011;60755;51.374;10.662;2023-06-26T03:13:04;7.95;;;7.25;;
72676;SDS011;60755;51.374;10.662;2023-06-26T03:15:32;9.18;;;7.93;;
72676;SDS011;60755;51.374;10.662;2023-06-26T03:17:59;8.43;;;7.63;;
72676;SDS011;60755;51.374;10.662;2023-06-26T03:20:28;7.63;;;6.95;;
72676;SDS011;60755;51.374;10.662;2023-06-26T03:22:57;7.35;;;6.65;;
72676;SDS011;60755;51.374;10.662;2023-06-26T03:25:26;7.50;;;6.75;;
72676;SDS011;60755;51.374;10.662;2023-06-26T03:28:22;7.38;;;6.68;;
72676;SDS011;60755;51.374;10.662;2023-06-26T03:30:49;6.90;;;6.30;;
72676;SDS011;60755;51.374;10.662;2023-06-26T03:33:17;6.28;;;5.60;;
72676;SDS011;60755;51.374;10.662;2023-06-26T03:35:44;6.78;;;5.88;;
72676;SDS011;60755;51.374;10.662;2023-06-26T03:38:13;6.15;;;5.65;;
72676;SDS011;60755;51.374;10.662;2023-06-26T03:40:44;7.80;;;5.55;;
72676;SDS011;60755;51.374;10.662;2023-06-26T03:43:11;5.45;;;5.03;;
72676;SDS011;60755;51.374;10.662;2023-06-26T03:45:58;5.75;;;5.35;;
72676;SDS011;60755;51.374;10.662;2023-06-26T03:48:28;8.63;;;6.47;;
72676;SDS011;60755;51.374;10.662;2023-06-26T03:50:55;8.73;;;5.10;;
72676;SDS011;60755;51.374;10.662;2023-06-26T03:53:22;5.43;;;5.03;;
72676;SDS011;60755;51.374;10.662;2023-06-26T03:55:52;5.63;;;5.07;;
72676;SDS011;60755;51.374;10.662;2023-06-26T03:58:22;4.90;;;4.55;;
72676;SDS011;60755;51.374;10.662;2023-06-26T04:00:50;5.25;;;4.82;;
72676;SDS011;60755;51.374;10.662;2023-06-26T04:03:19;5.47;;;4.90;;
72676;SDS011;60755;51.374;10.662;2023-06-26T04:05:47;5.35;;;4.80;;
72676;SDS011;60755;51.374;10.662;2023-06-26T04:08:14;5.40;;;4.97;;
72676;SDS011;60755;51.374;10.662;2023-06-26T04:10:41;5.03;;;4.53;;
72676;SDS011;60755;51.374;10.662;2023-06-26T04:13:12;5.90;;;4.88;;
72676;SDS011;60755;51.374;10.662;2023-06-26T04:15:40;5.80;;;4.70;;
72676;SDS011;60755;51.374;10.662;2023-06-26T04:18:08;4.72;;;4.43;;
72676;SDS011;60755;51.374;10.662;2023-06-26T04:20:38;4.88;;;4.53;;
72676;SDS011;60755;51.374;10.662;2023-06-26T04:23:06;4.85;;;4.45;;
72676;SDS011;60755;51.374;10.662;2023-06-26T04:25:33;4.72;;;4.32;;
72676;SDS011;60755;51.374;10.662;2023-06-26T04:28:03;6.78;;;4.22;;
72676;SDS011;60755;51.374;10.662;2023-06-26T04:30:32;4.72;;;4.40;;
72676;SDS011;60755;51.374;10.662;2023-06-26T04:33:00;4.95;;;4.55;;
72676;SDS011;60755;51.374;10.662;2023-06-26T04:35:27;5.10;;;4.40;;
72676;SDS011;60755;51.374;10.662;2023-06-26T04:37:55;5.20;;;4.50;;
72676;SDS011;60755;51.374;10.662;2023-06-26T04:40:22;4.63;;;4.18;;
72676;SDS011;60755;51.374;10.662;2023-06-26T04:42:49;4.68;;;4.30;;
72676;SDS011;60755;51.374;10.662;2023-06-26T04:45:16;4.80;;;4.45;;
72676;SDS011;60755;51.374;10.662;2023-06-26T04:47:45;4.63;;;4.03;;
72676;SDS011;60755;51.374;10.662;2023-06-26T04:50:12;4.45;;;3.88;;
72676;SDS011;60755;51.374;10.662;2023-06-26T04:52:40;4.85;;;4.45;;
72676;SDS011;60755;51.374;10.662;2023-06-26T04:55:07;4.55;;;4.13;;
72676;SDS011;60755;51.374;10.662;2023-06-26T04:57:34;5.15;;;4.38;;
72676;SDS011;60755;51.374;10.662;2023-06-26T05:00:02;5.05;;;3.83;;
72676;SDS011;60755;51.374;10.662;2023-06-26T05:02:33;4.47;;;4.07;;
72676;SDS011;60755;51.374;10.662;2023-06-26T05:05:02;4.30;;;3.90;;
72676;SDS011;60755;51.374;10.662;2023-06-26T05:07:29;4.60;;;4.20;;
72676;SDS011;60755;51.374;10.662;2023-06-26T05:09:56;5.38;;;4.20;;
72676;SDS011;60755;51.374;10.662;2023-06-26T05:12:24;7.07;;;4.10;;
72676;SDS011;60755;51.374;10.662;2023-06-26T05:14:51;6.57;;;4.43;;
72676;SDS011;60755;51.374;10.662;2023-06-26T05:17:18;6.93;;;4.50;;
72676;SDS011;60755;51.374;10.662;2023-06-26T05:19:46;6.90;;;4.22;;
72676;SDS011;60755;51.374;10.662;2023-06-26T05:22:14;4.38;;;3.95;;
72676;SDS011;60755;51.374;10.662;2023-06-26T05:24:44;5.22;;;4.13;;
72676;SDS011;60755;51.374;10.662;2023-06-26T05:27:13;3.95;;;3.70;;
72676;SDS011;60755;51.374;10.662;2023-06-26T05:29:47;4.90;;;4.45;;
72676;SDS011;60755;51.374;10.662;2023-06-26T05:32:15;7.65;;;4.28;;
72676;SDS011;60755;51.374;10.662;2023-06-26T05:34:44;4.45;;;4.20;;
72676;SDS011;60755;51.374;10.662;2023-06-26T05:37:16;4.25;;;3.95;;
72676;SDS011;60755;51.374;10.662;2023-06-26T05:39:47;4.30;;;4.10;;
72676;SDS011;60755;51.374;10.662;2023-06-26T05:42:15;4.55;;;4.28;;
72676;SDS011;60755;51.374;10.662;2023-06-26T05:44:43;5.07;;;4.70;;
72676;SDS011;60755;51.374;10.662;2023-06-26T05:47:10;5.25;;;4.38;;
72676;SDS011;60755;51.374;10.662;2023-06-26T05:49:37;5.13;;;4.63;;
72676;SDS011;60755;51.374;10.662;2023-06-26T05:52:05;4.85;;;4.55;;
72676;SDS011;60755;51.374;10.662;2023-06-26T05:54:34;4.53;;;4.22;;
72676;SDS011;60755;51.374;10.662;2023-06-26T05:57:02;5.00;;;4.47;;
72676;SDS011;60755;51.374;10.662;2023-06-26T05:59:30;4.82;;;4.45;;
72676;SDS011;60755;51.374;10.662;2023-06-26T06:01:59;5.05;;;4.65;;
72676;SDS011;60755;51.374;10.662;2023-06-26T06:04:26;4.57;;;4.38;;
72676;SDS011;60755;51.374;10.662;2023-06-26T06:06:54;5.25;;;4.78;;
72676;SDS011;60755;51.374;10.662;2023-06-26T06:09:21;6.85;;;5.10;;
72676;SDS011;60755;51.374;10.662;2023-06-26T06:11:50;4.88;;;4.57;;
72676;SDS011;60755;51.374;10.662;2023-06-26T06:14:17;4.88;;;4.57;;
72676;SDS011;60755;51.374;10.662;2023-06-26T06:16:44;5.05;;;4.75;;
72676;SDS011;60755;51.374;10.662;2023-06-26T06:19:11;4.78;;;4.57;;
72676;SDS011;60755;51.374;10.662;2023-06-26T06:21:39;5.05;;;4.53;;
72676;SDS011;60755;51.374;10.662;2023-06-26T06:24:06;4.80;;;4.50;;
72676;SDS011;60755;51.374;10.662;2023-06-26T06:26:35;5.03;;;4.63;;
72676;SDS011;60755;51.374;10.662;2023-06-26T06:29:04;5.40;;;5.10;;
72676;SDS011;60755;51.374;10.662;2023-06-26T06:31:31;4.55;;;4.25;;
72676;SDS011;60755;51.374;10.662;2023-06-26T06:33:58;4.75;;;4.45;;
72676;SDS011;60755;51.374;10.662;2023-06-26T06:36:26;5.05;;;4.75;;
72676;SDS011;60755;51.374;10.662;2023-06-26T06:38:53;4.28;;;4.07;;
72676;SDS011;60755;51.374;10.662;2023-06-26T06:41:20;4.70;;;4.47;;
72676;SDS011;60755;51.374;10.662;2023-06-26T06:43:48;4.68;;;4.25;;
72676;SDS011;60755;51.374;10.662;2023-06-26T06:46:16;4.72;;;4.47;;
72676;SDS011;60755;51.374;10.662;2023-06-26T06:48:44;4.75;;;4.40;;
72676;SDS011;60755;51.374;10.662;2023-06-26T06:51:12;4.82;;;4.53;;
72676;SDS011;60755;51.374;10.662;2023-06-26T06:53:39;4.53;;;4.32;;
72676;SDS011;60755;51.374;10.662;2023-06-26T06:56:07;4.30;;;4.10;;
72676;SDS011;60755;51.374;10.662;2023-06-26T06:58:34;4.45;;;4.15;;
72676;SDS011;60755;51.374;10.662;2023-06-26T07:01:01;4.90;;;4.50;;
72676;SDS011;60755;51.374;10.662;2023-06-26T07:03:31;4.40;;;4.20;;
72676;SDS011;60755;51.374;10.662;2023-06-26T07:05:58;4.85;;;4.57;;
72676;SDS011;60755;51.374;10.662;2023-06-26T07:08:25;4.22;;;3.80;;
72676;SDS011;60755;51.374;10.662;2023-06-26T07:10:52;4.50;;;4.10;;
72676;SDS011;60755;51.374;10.662;2023-06-26T07:13:20;5.50;;;4.40;;
72676;SDS011;60755;51.374;10.662;2023-06-26T07:15:47;5.03;;;4.72;;
72676;SDS011;60755;51.374;10.662;2023-06-26T07:18:14;4.32;;;4.03;;
72676;SDS011;60755;51.374;10.662;2023-06-26T07:20:43;4.20;;;4.00;;
72676;SDS011;60755;51.374;10.662;2023-06-26T07:23:10;5.03;;;4.63;;
72676;SDS011;60755;51.374;10.662;2023-06-26T07:25:38;4.82;;;4.53;;
72676;SDS011;60755;51.374;10.662;2023-06-26T07:28:09;5.03;;;4.57;;
72676;SDS011;60755;51.374;10.662;2023-06-26T07:30:37;5.00;;;4.70;;
72676;SDS011;60755;51.374;10.662;2023-06-26T07:33:04;4.88;;;4.68;;
72676;SDS011;60755;51.374;10.662;2023-06-26T07:35:33;5.30;;;4.90;;
72676;SDS011;60755;51.374;10.662;2023-06-26T07:38:01;5.13;;;4.93;;
72676;SDS011;60755;51.374;10.662;2023-06-26T07:40:29;5.50;;;4.80;;
72676;SDS011;60755;51.374;10.662;2023-06-26T07:42:56;4.88;;;4.68;;
72676;SDS011;60755;51.374;10.662;2023-06-26T07:45:24;5.13;;;4.72;;
72676;SDS011;60755;51.374;10.662;2023-06-26T07:47:51;10.02;;;5.05;;
72676;SDS011;60755;51.374;10.662;2023-06-26T07:50:18;5.22;;;4.88;;
72676;SDS011;60755;51.374;10.662;2023-06-26T07:52:48;4.90;;;4.60;;
72676;SDS011;60755;51.374;10.662;2023-06-26T07:55:17;5.40;;;5.05;;
72676;SDS011;60755;51.374;10.662;2023-06-26T07:57:44;6.25;;;5.60;;
72676;SDS011;60755;51.374;10.662;2023-06-26T08:00:12;5.78;;;5.38;;
72676;SDS011;60755;51.374;10.662;2023-06-26T08:02:42;5.50;;;5.10;;
72676;SDS011;60755;51.374;10.662;2023-06-26T08:05:09;5.95;;;5.50;;
72676;SDS011;60755;51.374;10.662;2023-06-26T08:07:36;5.95;;;5.10;;
72676;SDS011;60755;51.374;10.662;2023-06-26T08:10:04;9.52;;;5.50;;
72676;SDS011;60755;51.374;10.662;2023-06-26T08:12:33;5.40;;;5.10;;
72676;SDS011;60755;51.374;10.662;2023-06-26T08:15:02;6.03;;;5.53;;
72676;SDS011;60755;51.374;10.662;2023-06-26T08:17:30;5.85;;;5.35;;
72676;SDS011;60755;51.374;10.662;2023-06-26T08:19:57;6.35;;;5.80;;
72676;SDS011;60755;51.374;10.662;2023-06-26T08:22:24;5.63;;;5.13;;
72676;SDS011;60755;51.374;10.662;2023-06-26T08:24:52;5.68;;;5.07;;
72676;SDS011;60755;51.374;10.662;2023-06-26T08:27:19;5.82;;;5.35;;
72676;SDS011;60755;51.374;10.662;2023-06-26T08:29:48;5.70;;;5.20;;
72676;SDS011;60755;51.374;10.662;2023-06-26T08:32:16;5.30;;;5.00;;
72676;SDS011;60755;51.374;10.662;2023-06-26T08:34:43;5.93;;;5.38;;
72676;SDS011;60755;51.374;10.662;2023-06-26T08:37:10;5.57;;;5.22;;
72676;SDS011;60755;51.374;10.662;2023-06-26T08:39:37;5.90;;;5.50;;
72676;SDS011;60755;51.374;10.662;2023-06-26T08:42:05;5.75;;;5.35;;
72676;SDS011;60755;51.374;10.662;2023-06-26T08:44:32;6.20;;;5.70;;
72676;SDS011;60755;51.374;10.662;2023-06-26T08:47:02;5.80;;;5.25;;
72676;SDS011;60755;51.374;10.662;2023-06-26T08:49:34;6.20;;;5.70;;
72676;SDS011;60755;51.374;10.662;2023-06-26T08:52:10;6.05;;;5.60;;
72676;SDS011;60755;51.374;10.662;2023-06-26T08:54:41;6.15;;;5.65;;
72676;SDS011;60755;51.374;10.662;2023-06-26T08:57:11;5.90;;;5.53;;
72676;SDS011;60755;51.374;10.662;2023-06-26T08:59:41;5.72;;;5.22;;
72676;SDS011;60755;51.374;10.662;2023-06-26T09:02:09;6.05;;;5.55;;
72676;SDS011;60755;51.374;10.662;2023-06-26T09:04:38;6.15;;;5.60;;
72676;SDS011;60755;51.374;10.662;2023-06-26T09:07:06;6.20;;;5.70;;
72676;SDS011;60755;51.374;10.662;2023-06-26T09:09:34;6.63;;;6.03;;
72676;SDS011;60755;51.374;10.662;2023-06-26T09:12:01;5.88;;;5.47;;
72676;SDS011;60755;51.374;10.662;2023-06-26T09:14:29;5.97;;;5.40;;
72676;SDS011;60755;51.374;10.662;2023-06-26T09:16:57;5.82;;;5.20;;
72676;SDS011;60755;51.374;10.662;2023-06-26T09:19:25;5.90;;;5.50;;
72676;SDS011;60755;51.374;10.662;2023-06-26T09:21:53;5.57;;;5.18;;
72676;SDS011;60755;51.374;10.662;2023-06-26T09:24:21;6.03;;;5.53;;
72676;SDS011;60755;51.374;10.662;2023-06-26T09:26:49;6.00;;;5.40;;
72676;SDS011;60755;51.374;10.662;2023-06-26T09:29:19;6.82;;;5.78;;
72676;SDS011;60755;51.374;10.662;2023-06-26T09:31:46;6.00;;;5.50;;
72676;SDS011;60755;51.374;10.662;2023-06-26T09:34:14;6.00;;;5.50;;
72676;SDS011;60755;51.374;10.662;2023-06-26T09:36:42;6.45;;;5.85;;
72676;SDS011;60755;51.374;10.662;2023-06-26T09:39:12;5.63;;;5.30;;
72676;SDS011;60755;51.374;10.662;2023-06-26T09:41:41;5.60;;;5.20;;
72676;SDS011;60755;51.374;10.662;2023-06-26T09:44:10;6.30;;;5.80;;
72676;SDS011;60755;51.374;10.662;2023-06-26T09:46:39;6.13;;;5.63;;
72676;SDS011;60755;51.374;10.662;2023-06-26T09:49:07;5.97;;;5.38;;
72676;SDS011;60755;51.374;10.662;2023-06-26T09:51:36;6.18;;;5.53;;
72676;SDS011;60755;51.374;10.662;2023-06-26T09:54:06;5.97;;;5.25;;
72676;SDS011;60755;51.374;10.662;2023-06-26T09:56:34;5.20;;;4.85;;
72676;SDS011;60755;51.374;10.662;2023-06-26T09:59:02;6.13;;;5.55;;
72676;SDS011;60755;51.374;10.662;2023-06-26T10:01:31;5.75;;;5.25;;
72676;SDS011;60755;51.374;10.662;2023-06-26T10:03:59;6.40;;;5.90;;
72676;SDS011;60755;51.374;10.662;2023-06-26T10:06:27;5.75;;;5.25;;
72676;SDS011;60755;51.374;10.662;2023-06-26T10:08:59;5.88;;;5.28;;
72676;SDS011;60755;51.374;10.662;2023-06-26T10:11:29;5.30;;;5.00;;
72676;SDS011;60755;51.374;10.662;2023-06-26T10:14:01;5.38;;;4.88;;
72676;SDS011;60755;51.374;10.662;2023-06-26T10:16:31;5.70;;;5.20;;
72676;SDS011;60755;51.374;10.662;2023-06-26T10:19:01;5.75;;;5.35;;
72676;SDS011;60755;51.374;10.662;2023-06-26T10:21:33;6.03;;;5.35;;
72676;SDS011;60755;51.374;10.662;2023-06-26T10:24:02;5.63;;;5.18;;
72676;SDS011;60755;51.374;10.662;2023-06-26T10:26:32;4.82;;;4.53;;
72676;SDS011;60755;51.374;10.662;2023-06-26T10:29:05;5.47;;;5.10;;
72676;SDS011;60755;51.374;10.662;2023-06-26T10:31:34;5.47;;;5.00;;
72676;SDS011;60755;51.374;10.662;2023-06-26T10:34:03;6.10;;;4.95;;
72676;SDS011;60755;51.374;10.662;2023-06-26T10:36:31;5.60;;;5.15;;
72676;SDS011;60755;51.374;10.662;2023-06-26T10:39:03;6.15;;;5.55;;
72676;SDS011;60755;51.374;10.662;2023-06-26T10:41:37;5.60;;;5.20;;
72676;SDS011;60755;51.374;10.662;2023-06-26T10:44:08;8.02;;;5.70;;
72676;SDS011;60755;51.374;10.662;2023-06-26T10:46:52;5.85;;;5.45;;
72676;SDS011;60755;51.374;10.662;2023-06-26T10:49:20;6.03;;;5.60;;
72676;SDS011;60755;51.374;10.662;2023-06-26T10:51:51;5.70;;;5.30;;
72676;SDS011;60755;51.374;10.662;2023-06-26T10:54:20;5.70;;;5.03;;
72676;SDS011;60755;51.374;10.662;2023-06-26T10:56:49;5.75;;;5.25;;
72676;SDS011;60755;51.374;10.662;2023-06-26T10:59:18;6.13;;;5.60;;
72676;SDS011;60755;51.374;10.662;2023-06-26T11:01:46;5.70;;;5.20;;
72676;SDS011;60755;51.374;10.662;2023-06-26T11:04:35;5.70;;;5.18;;
72676;SDS011;60755;51.374;10.662;2023-06-26T11:07:19;5.53;;;5.13;;
72676;SDS011;60755;51.374;10.662;2023-06-26T11:09:55;6.90;;;5.60;;
72676;SDS011;60755;51.374;10.662;2023-06-26T11:12:37;6.25;;;5.63;;
72676;SDS011;60755;51.374;10.662;2023-06-26T11:15:07;6.03;;;5.53;;
72676;SDS011;60755;51.374;10.662;2023-06-26T11:17:36;5.82;;;5.43;;
72676;SDS011;60755;51.374;10.662;2023-06-26T11:20:05;5.72;;;5.32;;
72676;SDS011;60755;51.374;10.662;2023-06-26T11:22:34;6.20;;;5.78;;
72676;SDS011;60755;51.374;10.662;2023-06-26T11:25:03;6.25;;;5.78;;
72676;SDS011;60755;51.374;10.662;2023-06-26T11:27:32;5.70;;;5.30;;
72676;SDS011;60755;51.374;10.662;2023-06-26T11:30:06;5.75;;;5.40;;
72676;SDS011;60755;51.374;10.662;2023-06-26T11:32:35;6.00;;;5.50;;
72676;SDS011;60755;51.374;10.662;2023-06-26T11:35:03;5.82;;;5.43;;
72676;SDS011;60755;51.374;10.662;2023-06-26T11:37:31;11.20;;;5.72;;
72676;SDS011;60755;51.374;10.662;2023-06-26T11:39:58;6.55;;;5.95;;
72676;SDS011;60755;51.374;10.662;2023-06-26T11:42:25;6.30;;;5.90;;
72676;SDS011;60755;51.374;10.662;2023-06-26T11:44:53;6.65;;;6.05;;
72676;SDS011;60755;51.374;10.662;2023-06-26T11:47:22;6.53;;;6.03;;
72676;SDS011;60755;51.374;10.662;2023-06-26T11:49:49;8.27;;;5.90;;
72676;SDS011;60755;51.374;10.662;2023-06-26T11:52:17;6.80;;;6.30;;
72676;SDS011;60755;51.374;10.662;2023-06-26T11:54:44;6.57;;;6.07;;
72676;SDS011;60755;51.374;10.662;2023-06-26T11:57:13;7.07;;;6.47;;
72676;SDS011;60755;51.374;10.662;2023-06-26T11:59:43;6.72;;;6.22;;
72676;SDS011;60755;51.374;10.662;2023-06-26T12:02:10;6.68;;;6.18;;
72676;SDS011;60755;51.374;10.662;2023-06-26T12:04:42;6.72;;;6.15;;
72676;SDS011;60755;51.374;10.662;2023-06-26T12:07:10;7.53;;;6.93;;
72676;SDS011;60755;51.374;10.662;2023-06-26T12:09:39;9.10;;;7.65;;
72676;SDS011;60755;51.374;10.662;2023-06-26T12:12:08;12.70;;;7.65;;
72676;SDS011;60755;51.374;10.662;2023-06-26T12:14:35;10.85;;;7.20;;
72676;SDS011;60755;51.374;10.662;2023-06-26T12:17:07;8.75;;;7.68;;
72676;SDS011;60755;51.374;10.662;2023-06-26T12:19:36;8.38;;;7.45;;
72676;SDS011;60755;51.374;10.662;2023-06-26T12:22:09;8.73;;;7.50;;
72676;SDS011;60755;51.374;10.662;2023-06-26T12:24:36;8.60;;;7.70;;
72676;SDS011;60755;51.374;10.662;2023-06-26T12:27:07;9.70;;;7.45;;
72676;SDS011;60755;51.374;10.662;2023-06-26T12:29:35;10.05;;;7.50;;
72676;SDS011;60755;51.374;10.662;2023-06-26T12:32:02;10.93;;;8.20;;
72676;SDS011;60755;51.374;10.662;2023-06-26T12:34:31;12.85;;;9.13;;
72676;SDS011;60755;51.374;10.662;2023-06-26T12:37:00;11.00;;;8.80;;
72676;SDS011;60755;51.374;10.662;2023-06-26T12:39:30;8.90;;;8.00;;
72676;SDS011;60755;51.374;10.662;2023-06-26T12:42:13;10.35;;;8.30;;
72676;SDS011;60755;51.374;10.662;2023-06-26T12:44:41;12.15;;;8.90;;
72676;SDS011;60755;51.374;10.662;2023-06-26T12:47:11;8.98;;;8.07;;
72676;SDS011;60755;51.374;10.662;2023-06-26T12:49:41;9.63;;;8.43;;
72676;SDS011;60755;51.374;10.662;2023-06-26T12:52:09;9.25;;;8.43;;
72676;SDS011;60755;51.374;10.662;2023-06-26T12:54:39;9.60;;;8.70;;
72676;SDS011;60755;51.374;10.662;2023-06-26T12:57:07;9.50;;;8.45;;
72676;SDS011;60755;51.374;10.662;2023-06-26T12:59:35;8.90;;;8.00;;
72676;SDS011;60755;51.374;10.662;2023-06-26T13:02:04;7.70;;;7.13;;
72676;SDS011;60755;51.374;10.662;2023-06-26T13:04:31;7.93;;;7.13;;
72676;SDS011;60755;51.374;10.662;2023-06-26T13:06:59;10.02;;;7.70;;
72676;SDS011;60755;51.374;10.662;2023-06-26T13:09:26;9.00;;;7.90;;
72676;SDS011;60755;51.374;10.662;2023-06-26T13:11:54;8.70;;;7.80;;
72676;SDS011;60755;51.374;10.662;2023-06-26T13:14:21;10.05;;;9.10;;
72676;SDS011;60755;51.374;10.662;2023-06-26T13:16:48;9.80;;;8.77;;
72676;SDS011;60755;51.374;10.662;2023-06-26T13:19:15;10.70;;;9.70;;
72676;SDS011;60755;51.374;10.662;2023-06-26T13:21:42;10.40;;;9.40;;
72676;SDS011;60755;51.374;10.662;2023-06-26T13:24:09;11.30;;;10.10;;
72676;SDS011;60755;51.374;10.662;2023-06-26T13:26:36;11.90;;;10.13;;
72676;SDS011;60755;51.374;10.662;2023-06-26T13:29:05;10.88;;;9.70;;
72676;SDS011;60755;51.374;10.662;2023-06-26T13:31:32;14.45;;;11.60;;
72676;SDS011;60755;51.374;10.662;2023-06-26T13:33:59;12.32;;;11.13;;
72676;SDS011;60755;51.374;10.662;2023-06-26T13:36:27;14.93;;;11.20;;
72676;SDS011;60755;51.374;10.662;2023-06-26T13:38:54;13.25;;;11.75;;
72676;SDS011;60755;51.374;10.662;2023-06-26T13:41:22;14.07;;;11.25;;
72676;SDS011;60755;51.374;10.662;2023-06-26T13:43:49;15.15;;;12.02;;
72676;SDS011;60755;51.374;10.662;2023-06-26T13:46:17;15.55;;;12.75;;
72676;SDS011;60755;51.374;10.662;2023-06-26T13:48:45;13.55;;;12.25;;
72676;SDS011;60755;51.374;10.662;2023-06-26T13:51:13;14.48;;;12.57;;
72676;SDS011;60755;51.374;10.662;2023-06-26T13:53:41;12.48;;;11.18;;
72676;SDS011;60755;51.374;10.662;2023-06-26T13:56:10;12.43;;;11.02;;
72676;SDS011;60755;51.374;10.662;2023-06-26T13:58:37;12.32;;;11.15;;
72676;SDS011;60755;51.374;10.662;2023-06-26T14:01:05;12.65;;;11.32;;
72676;SDS011;60755;51.374;10.662;2023-06-26T14:03:33;12.25;;;10.82;;
72676;SDS011;60755;51.374;10.662;2023-06-26T14:06:00;11.95;;;10.30;;
72676;SDS011;60755;51.374;10.662;2023-06-26T14:08:27;12.23;;;10.48;;
72676;SDS011;60755;51.374;10.662;2023-06-26T14:10:54;11.73;;;10.20;;
72676;SDS011;60755;51.374;10.662;2023-06-26T14:13:21;11.32;;;10.20;;
72676;SDS011;60755;51.374;10.662;2023-06-26T14:15:48;11.52;;;10.35;;
72676;SDS011;60755;51.374;10.662;2023-06-26T14:18:18;14.00;;;11.18;;
72676;SDS011;60755;51.374;10.662;2023-06-26T14:20:47;10.88;;;9.57;;
72676;SDS011;60755;51.374;10.662;2023-06-26T14:23:14;12.43;;;9.70;;
72676;SDS011;60755;51.374;10.662;2023-06-26T14:25:41;11.60;;;9.68;;
72676;SDS011;60755;51.374;10.662;2023-06-26T14:28:08;11.07;;;9.85;;
72676;SDS011;60755;51.374;10.662;2023-06-26T14:30:35;11.70;;;9.93;;
72676;SDS011;60755;51.374;10.662;2023-06-26T14:33:02;10.75;;;9.63;;
72676;SDS011;60755;51.374;10.662;2023-06-26T14:35:29;13.23;;;9.32;;
72676;SDS011;60755;51.374;10.662;2023-06-26T14:37:58;11.02;;;9.93;;
72676;SDS011;60755;51.374;10.662;2023-06-26T14:40:24;14.30;;;9.50;;